createdAt,value
2023-05-13T00:00:18.212Z,35.02
2023-05-13T00:02:45.152Z,35.07
2023-05-13T00:05:12.395Z,35.21
2023-05-13T00:07:39.216Z,35.32
2023-05-13T00:10:06.961Z,35.27
2023-05-13T00:12:33.932Z,35.23
2023-05-13T00:15:00.825Z,35.36
2023-05-13T00:17:27.642Z,35.56
2023-05-13T00:19:54.519Z,35.63
2023-05-13T00:22:21.320Z,35.77
2023-05-13T00:24:48.113Z,36.08
2023-05-13T00:27:14.922Z,36.32
2023-05-13T00:29:42.020Z,36.48
2023-05-13T00:32:08.787Z,36.43
2023-05-13T00:34:35.631Z,36.60
2023-05-13T00:37:02.556Z,36.86
2023-05-13T00:39:29.804Z,37.02
2023-05-13T00:41:56.731Z,37.00
2023-05-13T00:44:23.830Z,37.02
2023-05-13T00:46:50.623Z,36.98
2023-05-13T00:49:17.417Z,37.11
2023-05-13T00:51:44.326Z,37.02
2023-05-13T00:54:11.829Z,37.06
2023-05-13T00:56:39.193Z,36.95
2023-05-13T00:59:06.057Z,36.87
2023-05-13T01:01:47.890Z,37.02
2023-05-13T01:04:18.141Z,36.84
2023-05-13T01:06:54.168Z,36.51
2023-05-13T01:09:46.172Z,36.57
2023-05-13T01:12:19.953Z,36.69
2023-05-13T01:14:54.422Z,36.90
2023-05-13T01:17:26.303Z,36.89
2023-05-13T01:19:55.602Z,37.00
2023-05-13T01:22:22.547Z,37.12
2023-05-13T01:24:50.665Z,37.16
2023-05-13T01:27:18.184Z,37.04
2023-05-13T01:29:45.701Z,36.97
2023-05-13T01:32:13.331Z,36.85
2023-05-13T01:34:40.452Z,36.82
2023-05-13T01:37:07.263Z,36.60
2023-05-13T01:39:34.651Z,36.56
2023-05-13T01:42:03.815Z,36.68
2023-05-13T01:44:31.529Z,36.82
2023-05-13T01:46:59.477Z,36.83
2023-05-13T01:49:27.064Z,36.96
2023-05-13T01:51:53.874Z,37.19
2023-05-13T01:54:20.760Z,37.21
2023-05-13T01:56:50.948Z,37.20
2023-05-13T01:59:17.980Z,37.34
2023-05-13T02:01:45.895Z,37.29
2023-05-13T02:04:12.887Z,37.41
2023-05-13T02:06:40.418Z,37.43
2023-05-13T02:09:08.361Z,37.33
2023-05-13T02:11:38.313Z,36.87
2023-05-13T02:14:05.218Z,37.01
2023-05-13T02:16:34.624Z,37.09
2023-05-13T02:19:05.685Z,37.20
2023-05-13T02:21:32.811Z,37.33
2023-05-13T02:23:59.595Z,37.57
2023-05-13T02:26:28.675Z,37.66
2023-05-13T02:28:55.560Z,37.70
2023-05-13T02:31:22.598Z,37.61
2023-05-13T02:33:49.773Z,37.20
2023-05-13T02:36:16.700Z,36.75
2023-05-13T02:38:44.062Z,36.49
2023-05-13T02:41:11.510Z,36.20
2023-05-13T02:43:38.291Z,36.01
2023-05-13T02:46:05.257Z,35.60
2023-05-13T02:48:32.610Z,35.30
2023-05-13T02:51:00.867Z,34.78
2023-05-13T02:53:28.370Z,34.06
2023-05-13T02:55:59.584Z,33.46
2023-05-13T02:58:26.484Z,33.00
2023-05-13T03:00:53.428Z,32.38
2023-05-13T03:03:23.038Z,31.74
2023-05-13T03:05:49.985Z,31.32
2023-05-13T03:08:16.850Z,30.84
2023-05-13T03:10:43.724Z,30.10
2023-05-13T03:13:10.669Z,29.71
2023-05-13T03:15:37.642Z,29.32
2023-05-13T03:18:04.737Z,28.57
2023-05-13T03:20:31.786Z,28.03
2023-05-13T03:22:59.612Z,27.45
2023-05-13T03:25:26.491Z,26.80
2023-05-13T03:27:56.464Z,26.07
2023-05-13T03:30:24.824Z,25.60
2023-05-13T03:32:58.216Z,25.15
2023-05-13T03:35:25.398Z,24.81
2023-05-13T03:37:52.753Z,24.29
2023-05-13T03:40:20.275Z,23.91
2023-05-13T03:42:48.155Z,23.42
2023-05-13T03:45:15.103Z,23.06
2023-05-13T03:47:42.391Z,22.47
2023-05-13T03:50:12.486Z,22.15
2023-05-13T03:52:43.964Z,21.61
2023-05-13T03:55:14.945Z,21.15
2023-05-13T03:57:45.167Z,20.93
2023-05-13T04:00:13.214Z,20.60
2023-05-13T04:02:43.043Z,20.04
2023-05-13T04:05:11.129Z,19.49
2023-05-13T04:07:38.131Z,19.08
2023-05-13T04:10:06.056Z,18.78
2023-05-13T04:12:33.576Z,18.35
2023-05-13T04:15:00.914Z,18.15
2023-05-13T04:17:28.032Z,17.67
2023-05-13T04:19:55.095Z,17.49
2023-05-13T04:22:22.022Z,17.07
2023-05-13T04:24:52.211Z,16.86
2023-05-13T04:27:19.010Z,16.57
2023-05-13T04:29:47.232Z,16.34
2023-05-13T04:32:17.946Z,16.22
2023-05-13T04:34:44.789Z,15.87
2023-05-13T04:37:11.616Z,15.59
2023-05-13T04:39:38.757Z,15.23
2023-05-13T04:42:06.356Z,15.02
2023-05-13T04:44:33.864Z,14.85
2023-05-13T04:47:01.036Z,14.68
2023-05-13T04:49:27.983Z,14.28
2023-05-13T04:51:55.589Z,13.99
2023-05-13T04:54:23.804Z,13.72
2023-05-13T04:56:51.242Z,13.51
2023-05-13T04:59:18.223Z,13.35
2023-05-13T05:01:45.301Z,13.12
2023-05-13T05:04:13.010Z,12.90
2023-05-13T05:06:40.887Z,13.03
2023-05-13T05:09:07.999Z,12.65
2023-05-13T05:11:35.095Z,12.54
2023-05-13T05:14:01.897Z,12.51
2023-05-13T05:16:28.706Z,12.32
2023-05-13T05:18:57.738Z,12.30
2023-05-13T05:21:24.857Z,12.22
2023-05-13T05:23:51.771Z,12.27
2023-05-13T05:26:19.184Z,12.24
2023-05-13T05:28:47.119Z,12.09
2023-05-13T05:31:16.132Z,11.98
2023-05-13T05:33:43.571Z,12.08
2023-05-13T05:36:10.485Z,12.10
2023-05-13T05:38:37.803Z,11.93
2023-05-13T05:41:05.216Z,11.82
2023-05-13T05:43:32.012Z,11.71
2023-05-13T05:45:58.861Z,11.98
2023-05-13T05:48:25.835Z,11.88
2023-05-13T05:50:53.211Z,11.84
2023-05-13T05:53:26.380Z,11.62
2023-05-13T05:55:53.501Z,11.71
2023-05-13T05:58:21.224Z,11.70
2023-05-13T06:00:48.632Z,11.69
2023-05-13T06:03:15.816Z,11.35
2023-05-13T06:05:42.938Z,11.02
2023-05-13T06:08:09.832Z,11.34
2023-05-13T06:10:36.846Z,11.09
2023-05-13T06:13:04.341Z,11.02
2023-05-13T06:15:31.151Z,11.58
2023-05-13T06:17:58.139Z,10.88
2023-05-13T06:20:25.673Z,10.52
2023-05-13T06:22:52.473Z,10.55
2023-05-13T06:25:19.321Z,10.95
2023-05-13T06:27:46.161Z,10.91
2023-05-13T06:30:13.197Z,10.60
2023-05-13T06:32:53.594Z,10.46
2023-05-13T06:35:27.648Z,10.45
2023-05-13T06:37:55.012Z,10.29
2023-05-13T06:40:22.338Z,10.17
2023-05-13T06:42:49.562Z,10.24
2023-05-13T06:45:23.617Z,10.45
2023-05-13T06:47:51.759Z,10.07
2023-05-13T06:50:19.726Z,9.92
2023-05-13T06:52:47.343Z,9.93
2023-05-13T06:55:14.225Z,9.79
2023-05-13T06:57:43.360Z,9.43
2023-05-13T07:00:11.412Z,9.91
2023-05-13T07:02:38.251Z,10.46
2023-05-13T07:05:05.956Z,11.19
2023-05-13T07:07:32.814Z,11.24
2023-05-13T07:09:59.734Z,12.16
2023-05-13T07:12:26.963Z,12.47
2023-05-13T07:14:53.740Z,12.77
2023-05-13T07:17:20.782Z,12.88
2023-05-13T07:19:47.846Z,12.28
2023-05-13T07:22:14.635Z,11.97
2023-05-13T07:24:41.946Z,11.57
2023-05-13T07:27:08.754Z,11.74
2023-05-13T07:29:35.568Z,11.62
2023-05-13T07:32:06.382Z,11.03
2023-05-13T07:34:33.204Z,11.07
2023-05-13T07:37:00.052Z,11.21
2023-05-13T07:39:27.566Z,12.00
2023-05-13T07:41:55.119Z,12.84
2023-05-13T07:44:22.243Z,13.31
2023-05-13T07:46:49.485Z,13.55
2023-05-13T07:49:16.437Z,14.09
2023-05-13T07:51:43.234Z,14.48
2023-05-13T07:54:10.332Z,14.77
2023-05-13T07:56:38.358Z,14.43
2023-05-13T07:59:05.442Z,14.39
2023-05-13T08:01:32.279Z,14.27
2023-05-13T08:03:59.316Z,15.07
2023-05-13T08:06:26.285Z,14.98
2023-05-13T08:08:53.154Z,14.90
2023-05-13T08:11:20.055Z,14.87
2023-05-13T08:13:46.845Z,14.98
2023-05-13T08:16:13.707Z,15.01
2023-05-13T08:18:40.571Z,15.03
2023-05-13T08:21:07.684Z,14.76
2023-05-13T08:23:44.662Z,14.30
2023-05-13T08:26:13.034Z,13.68
2023-05-13T08:28:39.880Z,13.55
2023-05-13T08:31:06.779Z,13.51
2023-05-13T08:33:34.484Z,13.53
2023-05-13T08:36:01.719Z,13.73
2023-05-13T08:38:28.506Z,14.25
2023-05-13T08:40:55.423Z,13.95
2023-05-13T08:43:22.686Z,14.00
2023-05-13T08:45:50.902Z,14.02
2023-05-13T08:48:17.744Z,14.20
2023-05-13T08:50:44.741Z,14.34
2023-05-13T08:53:12.253Z,14.62
2023-05-13T08:55:40.614Z,14.60
2023-05-13T08:58:08.343Z,14.45
2023-05-13T09:00:35.410Z,14.24
2023-05-13T09:03:02.518Z,14.64
2023-05-13T09:05:29.690Z,14.39
2023-05-13T09:07:57.356Z,14.23
2023-05-13T09:10:24.261Z,14.04
2023-05-13T09:12:54.941Z,14.23
2023-05-13T09:15:26.323Z,14.35
2023-05-13T09:18:01.720Z,14.23
2023-05-13T09:20:28.707Z,14.67
2023-05-13T09:22:59.415Z,14.89
2023-05-13T09:25:26.397Z,14.94
2023-05-13T09:27:57.860Z,14.88
2023-05-13T09:30:29.468Z,15.01
2023-05-13T09:33:10.650Z,14.75
2023-05-13T09:35:41.089Z,14.84
2023-05-13T09:38:21.586Z,14.62
2023-05-13T09:40:52.587Z,14.62
2023-05-13T09:43:27.043Z,14.64
2023-05-13T09:45:58.506Z,14.72
2023-05-13T09:48:26.704Z,14.11
2023-05-13T09:50:53.834Z,14.10
2023-05-13T09:53:21.399Z,14.27
2023-05-13T09:55:49.314Z,14.61
2023-05-13T09:58:16.134Z,14.65
2023-05-13T10:03:24.962Z,15.81
2023-05-13T10:05:51.904Z,14.69
2023-05-13T10:08:18.898Z,14.68
2023-05-13T10:10:46.288Z,14.43
2023-05-13T10:13:18.061Z,14.64
2023-05-13T10:15:51.831Z,14.89
2023-05-13T10:18:19.808Z,14.76
2023-05-13T10:20:47.177Z,14.58
2023-05-13T10:23:14.616Z,14.66
2023-05-13T10:25:42.204Z,14.57
2023-05-13T10:28:08.997Z,14.26
2023-05-13T10:30:35.990Z,14.24
2023-05-13T10:33:03.256Z,14.19
2023-05-13T10:35:34.636Z,14.18
2023-05-13T10:38:30.703Z,14.18
2023-05-13T10:41:26.984Z,14.14
2023-05-13T10:43:58.504Z,14.02
2023-05-13T10:46:25.559Z,13.97
2023-05-13T10:48:56.685Z,14.15
2023-05-13T10:51:24.665Z,14.36
2023-05-13T10:53:55.798Z,13.95
2023-05-13T10:56:24.698Z,13.38
2023-05-13T10:58:59.405Z,13.40
2023-05-13T11:01:29.830Z,13.05
2023-05-13T11:04:04.721Z,13.27
2023-05-13T11:06:36.874Z,13.42
2023-05-13T11:09:14.580Z,12.99
2023-05-13T11:11:41.677Z,13.07
2023-05-13T11:14:18.612Z,13.08
2023-05-13T11:16:57.014Z,13.27
2023-05-13T11:19:27.425Z,12.95
2023-05-13T11:21:59.146Z,12.80
2023-05-13T11:24:26.757Z,12.70
2023-05-13T11:26:59.170Z,12.98
2023-05-13T11:29:29.968Z,13.01
2023-05-13T11:32:00.313Z,12.94
2023-05-13T11:34:28.374Z,13.23
2023-05-13T11:37:08.824Z,13.30
2023-05-13T11:39:36.642Z,13.38
2023-05-13T11:42:11.570Z,13.15
2023-05-13T11:44:45.804Z,13.08
2023-05-13T11:47:13.091Z,13.22
2023-05-13T11:49:41.903Z,13.34
2023-05-13T11:52:18.885Z,13.17
2023-05-13T11:54:58.200Z,13.40
2023-05-13T11:57:29.044Z,13.79
2023-05-13T12:00:00.674Z,14.24
2023-05-13T12:02:29.347Z,14.32
2023-05-13T12:04:59.711Z,14.38
2023-05-13T12:07:27.419Z,14.29
2023-05-13T12:09:57.618Z,14.59
2023-05-13T12:12:24.651Z,14.69
2023-05-13T12:14:51.545Z,14.71
2023-05-13T12:17:19.135Z,14.54
2023-05-13T12:20:05.894Z,14.29
2023-05-13T12:22:36.609Z,14.12
2023-05-13T12:25:38.397Z,13.90
2023-05-13T12:28:21.960Z,14.07
2023-05-13T12:30:58.896Z,13.89
2023-05-13T12:33:33.686Z,13.95
2023-05-13T12:36:20.744Z,13.47
2023-05-13T12:39:01.200Z,13.74
2023-05-13T12:41:33.914Z,13.33
2023-05-13T12:44:03.026Z,13.58
2023-05-13T12:46:30.178Z,13.27
2023-05-13T12:49:01.892Z,13.00
2023-05-13T12:51:29.765Z,13.17
2023-05-13T12:53:58.143Z,13.07
2023-05-13T12:56:25.496Z,13.14
2023-05-13T12:58:55.931Z,13.52
2023-05-13T13:01:22.983Z,13.18
2023-05-13T13:03:50.176Z,13.29
2023-05-13T13:06:17.903Z,13.55
2023-05-13T13:08:44.755Z,13.48
2023-05-13T13:11:15.090Z,13.52
2023-05-13T13:13:42.023Z,13.80
2023-05-13T13:16:09.665Z,14.11
2023-05-13T13:18:36.744Z,14.38
2023-05-13T13:21:05.411Z,14.57
2023-05-13T13:23:32.283Z,14.59
2023-05-13T13:25:59.510Z,14.77
2023-05-13T13:28:27.370Z,15.31
2023-05-13T13:30:54.325Z,15.45
2023-05-13T13:33:22.579Z,15.02
2023-05-13T13:35:49.574Z,14.93
2023-05-13T13:38:16.696Z,14.80
2023-05-13T13:40:43.673Z,14.85
2023-05-13T13:43:10.560Z,15.02
2023-05-13T13:45:37.367Z,14.95
2023-05-13T13:48:04.832Z,14.83
2023-05-13T13:50:31.723Z,14.76
2023-05-13T13:52:58.489Z,14.06
2023-05-13T13:55:26.509Z,14.18
2023-05-13T13:57:53.510Z,14.23
2023-05-13T14:00:20.687Z,14.02
2023-05-13T14:02:48.652Z,13.86
2023-05-13T14:05:16.274Z,13.72
2023-05-13T14:07:43.153Z,13.91
2023-05-13T14:10:10.576Z,14.17
2023-05-13T14:12:38.557Z,14.38
2023-05-13T14:15:06.673Z,14.38
2023-05-13T14:17:33.828Z,14.32
2023-05-13T14:20:00.884Z,14.43
2023-05-13T14:22:27.767Z,14.45
2023-05-13T14:24:54.675Z,14.53
2023-05-13T14:27:21.968Z,14.52
2023-05-13T14:29:49.230Z,14.31
2023-05-13T14:32:16.386Z,14.19
2023-05-13T14:34:43.273Z,14.17
2023-05-13T14:37:10.093Z,14.54
2023-05-13T14:39:37.182Z,14.27
2023-05-13T14:42:04.583Z,14.15
2023-05-13T14:44:32.150Z,13.96
2023-05-13T14:46:59.126Z,13.91
2023-05-13T14:49:25.945Z,13.76
2023-05-13T14:51:52.807Z,13.63
2023-05-13T14:54:19.599Z,13.70
2023-05-13T14:56:46.588Z,13.56
2023-05-13T14:59:13.437Z,13.52
2023-05-13T15:01:40.590Z,13.82
2023-05-13T15:04:07.535Z,14.64
2023-05-13T15:06:34.416Z,15.37
2023-05-13T15:09:01.255Z,15.73
2023-05-13T15:11:28.443Z,16.11
2023-05-13T15:13:55.417Z,15.83
2023-05-13T15:16:22.370Z,15.40
2023-05-13T15:18:50.465Z,15.32
2023-05-13T15:21:17.775Z,15.38
2023-05-13T15:23:44.923Z,15.29
2023-05-13T15:26:11.973Z,15.15
2023-05-13T15:28:38.772Z,15.06
2023-05-13T15:31:06.126Z,15.31
2023-05-13T15:33:33.146Z,15.38
2023-05-13T15:36:01.383Z,15.14
2023-05-13T15:38:28.326Z,15.07
2023-05-13T15:40:55.131Z,14.97
2023-05-13T15:43:21.937Z,14.76
2023-05-13T15:45:50.396Z,14.71
2023-05-13T15:48:17.602Z,14.68
2023-05-13T15:50:44.804Z,14.63
2023-05-13T15:53:11.717Z,14.72
2023-05-13T15:55:39.632Z,14.80
2023-05-13T15:58:07.195Z,14.84
2023-05-13T16:00:34.196Z,14.90
2023-05-13T16:03:01.446Z,14.78
2023-05-13T16:05:28.457Z,14.68
2023-05-13T16:07:57.319Z,15.23
2023-05-13T16:10:24.583Z,15.52
2023-05-13T16:12:51.665Z,15.69
2023-05-13T16:15:18.532Z,15.62
2023-05-13T16:17:45.468Z,15.59
2023-05-13T16:20:13.525Z,15.70
2023-05-13T16:22:40.593Z,15.35
2023-05-13T16:25:09.157Z,15.40
2023-05-13T16:27:36.513Z,15.78
2023-05-13T16:30:04.569Z,15.63
2023-05-13T16:32:31.471Z,15.68
2023-05-13T16:34:58.450Z,15.54
2023-05-13T16:37:25.263Z,15.47
2023-05-13T16:39:52.154Z,15.55
2023-05-13T16:42:21.916Z,15.92
2023-05-13T16:44:48.813Z,16.39
2023-05-13T16:47:15.632Z,16.61
2023-05-13T16:49:42.734Z,16.83
2023-05-13T16:52:09.625Z,16.95
2023-05-13T16:54:36.541Z,17.67
2023-05-13T16:57:03.648Z,17.43
2023-05-13T16:59:30.534Z,17.73
2023-05-13T17:01:59.419Z,18.12
2023-05-13T17:04:27.869Z,17.51
2023-05-13T17:06:55.764Z,17.46
2023-05-13T17:09:24.508Z,16.98
2023-05-13T17:11:51.301Z,17.07
2023-05-13T17:14:18.205Z,17.47
2023-05-13T17:16:45.066Z,18.48
2023-05-13T17:19:12.134Z,19.24
2023-05-13T17:21:39.011Z,19.13
2023-05-13T17:24:06.524Z,19.12
2023-05-13T17:26:33.699Z,18.76
2023-05-13T17:29:01.463Z,18.72
2023-05-13T17:31:28.384Z,18.90
2023-05-13T17:33:55.371Z,18.83
2023-05-13T17:36:22.388Z,18.99
2023-05-13T17:38:50.132Z,19.31
2023-05-13T17:41:16.985Z,19.75
2023-05-13T17:43:43.882Z,20.53
2023-05-13T17:46:11.418Z,20.87
2023-05-13T17:48:38.389Z,21.25
2023-05-13T17:51:05.486Z,21.44
2023-05-13T17:53:34.501Z,21.69
2023-05-13T17:56:01.951Z,22.17
2023-05-13T17:58:28.846Z,22.27
2023-05-13T18:00:55.674Z,22.24
2023-05-13T18:03:22.597Z,22.25
2023-05-13T18:05:49.494Z,22.59
2023-05-13T18:08:16.300Z,22.73
2023-05-13T18:10:43.210Z,22.16
2023-05-13T18:13:11.858Z,21.88
2023-05-13T18:15:38.851Z,21.49
2023-05-13T18:18:06.315Z,21.55
2023-05-13T18:20:33.765Z,22.35
2023-05-13T18:23:00.885Z,22.58
2023-05-13T18:25:27.686Z,22.35
2023-05-13T18:27:54.805Z,22.79
2023-05-13T18:30:21.902Z,22.94
2023-05-13T18:32:49.294Z,23.18
2023-05-13T18:35:16.315Z,23.86
2023-05-13T18:37:43.321Z,23.85
2023-05-13T18:40:11.342Z,24.21
2023-05-13T18:42:38.120Z,24.53
2023-05-13T18:45:06.190Z,24.72
2023-05-13T18:47:33.107Z,25.31
2023-05-13T18:50:00.196Z,25.85
2023-05-13T18:52:27.170Z,26.12
2023-05-13T18:54:54.190Z,26.51
2023-05-13T18:57:21.668Z,26.67
2023-05-13T18:59:48.798Z,26.14
2023-05-13T19:02:16.252Z,25.68
2023-05-13T19:04:43.416Z,25.52
2023-05-13T19:07:10.299Z,25.40
2023-05-13T19:09:37.202Z,25.29
2023-05-13T19:12:04.309Z,25.59
2023-05-13T19:14:31.304Z,26.30
2023-05-13T19:16:58.287Z,25.98
2023-05-13T19:19:25.324Z,25.28
2023-05-13T19:21:52.211Z,25.12
2023-05-13T19:24:19.315Z,25.24
2023-05-13T19:26:46.124Z,25.89
2023-05-13T19:29:13.010Z,27.55
2023-05-13T19:31:40.276Z,27.97
2023-05-13T19:34:07.844Z,27.75
2023-05-13T19:36:34.836Z,27.74
2023-05-13T19:39:01.668Z,27.53
2023-05-13T19:41:28.584Z,27.41
2023-05-13T19:43:55.529Z,27.44
2023-05-13T19:46:22.474Z,27.62
2023-05-13T19:48:49.462Z,27.45
2023-05-13T19:51:16.433Z,27.30
2023-05-13T19:53:43.257Z,27.32
2023-05-13T19:56:10.144Z,27.64
2023-05-13T19:58:37.077Z,27.80
2023-05-13T20:01:03.870Z,27.96
2023-05-13T20:03:31.019Z,27.48
2023-05-13T20:05:58.062Z,27.38
2023-05-13T20:08:25.494Z,28.34
2023-05-13T20:10:52.280Z,29.15
2023-05-13T20:13:19.090Z,29.50
2023-05-13T20:15:46.076Z,29.69
2023-05-13T20:18:12.972Z,29.98
2023-05-13T20:20:41.700Z,29.55
2023-05-13T20:23:08.718Z,29.21
2023-05-13T20:25:36.032Z,29.00
2023-05-13T20:28:02.986Z,29.32
2023-05-13T20:30:29.830Z,29.67
2023-05-13T20:32:56.674Z,29.90
2023-05-13T20:35:23.627Z,29.75
2023-05-13T20:37:50.767Z,29.99
2023-05-13T20:40:17.641Z,30.43
2023-05-13T20:42:44.698Z,30.80
2023-05-13T20:45:12.973Z,30.87
2023-05-13T20:47:39.989Z,31.18
2023-05-13T20:50:07.976Z,31.46
2023-05-13T20:52:34.809Z,31.40
2023-05-13T20:55:01.803Z,31.37
2023-05-13T20:57:28.629Z,31.25
2023-05-13T20:59:55.759Z,31.26
2023-05-13T21:02:22.685Z,31.32
2023-05-13T21:04:49.621Z,31.33
2023-05-13T21:07:16.502Z,31.33
2023-05-13T21:09:43.531Z,31.32
2023-05-13T21:12:10.517Z,31.20
2023-05-13T21:14:37.419Z,31.20
2023-05-13T21:17:04.336Z,31.28
2023-05-13T21:19:31.230Z,31.47
2023-05-13T21:21:58.840Z,31.19
2023-05-13T21:24:25.670Z,31.04
2023-05-13T21:26:52.543Z,30.78
2023-05-13T21:29:19.486Z,30.53
2023-05-13T21:31:47.578Z,30.52
2023-05-13T21:34:14.484Z,30.60
2023-05-13T21:36:41.368Z,30.86
2023-05-13T21:39:10.507Z,31.25
2023-05-13T21:41:37.851Z,31.35
2023-05-13T21:44:04.776Z,31.59
2023-05-13T21:46:31.873Z,31.58
2023-05-13T21:48:59.820Z,31.43
2023-05-13T21:51:26.673Z,31.53
2023-05-13T21:53:53.485Z,31.46
2023-05-13T21:56:21.223Z,31.41
2023-05-13T21:58:49.434Z,31.72
2023-05-13T22:01:16.468Z,31.75
2023-05-13T22:03:43.448Z,31.84
2023-05-13T22:06:10.269Z,31.52
2023-05-13T22:08:37.213Z,31.53
2023-05-13T22:11:04.162Z,31.93
2023-05-13T22:13:30.953Z,32.08
2023-05-13T22:15:57.917Z,32.37
2023-05-13T22:21:03.781Z,34.19
2023-05-13T22:23:31.178Z,32.68
2023-05-13T22:25:57.980Z,32.63
2023-05-13T22:28:24.875Z,32.62
2023-05-13T22:30:51.776Z,32.69
2023-05-13T22:33:19.030Z,32.41
2023-05-13T22:35:45.991Z,32.62
2023-05-13T22:38:12.784Z,32.82
2023-05-13T22:40:39.699Z,32.74
2023-05-13T22:43:06.597Z,32.71
2023-05-13T22:45:33.423Z,32.76
2023-05-13T22:48:00.368Z,32.76
2023-05-13T22:50:27.391Z,32.79
2023-05-13T22:52:54.187Z,32.97
2023-05-13T22:55:21.226Z,32.95
2023-05-13T22:57:48.105Z,32.95
2023-05-13T23:00:15.893Z,32.97
2023-05-13T23:02:42.745Z,33.01
2023-05-13T23:05:10.058Z,33.01
2023-05-13T23:07:37.033Z,33.11
2023-05-13T23:10:04.470Z,33.19
2023-05-13T23:12:31.353Z,33.41
2023-05-13T23:14:58.170Z,33.27
2023-05-13T23:17:25.062Z,33.27
2023-05-13T23:19:52.106Z,33.43
2023-05-13T23:22:18.972Z,33.34
2023-05-13T23:24:45.786Z,33.28
2023-05-13T23:27:12.671Z,33.38
2023-05-13T23:29:39.580Z,33.50
2023-05-13T23:32:07.264Z,33.52
2023-05-13T23:34:34.274Z,33.54
2023-05-13T23:37:01.109Z,33.60
2023-05-13T23:39:27.868Z,33.72
2023-05-13T23:41:54.678Z,33.68
2023-05-13T23:44:21.685Z,33.62
2023-05-13T23:46:48.697Z,33.64
2023-05-13T23:49:15.576Z,33.75
2023-05-13T23:51:42.410Z,33.93
2023-05-13T23:54:09.292Z,33.82
2023-05-13T23:56:36.077Z,33.64
2023-05-13T23:59:03.017Z,33.77
